sensor_id;sensor_type;location;lat;lon;timestamp;P1;durP1;ratioP1;P2;durP2;ratioP2
72286;SDS011;60221;45.696;16.076;2023-11-21T00:01:06;59.00;;;31.10;;
72286;SDS011;60221;45.696;16.076;2023-11-21T00:03:35;52.00;;;28.40;;
72286;SDS011;60221;45.696;16.076;2023-11-21T00:06:02;57.70;;;30.00;;
72286;SDS011;60221;45.696;16.076;2023-11-21T00:08:29;53.60;;;31.60;;
72286;SDS011;60221;45.696;16.076;2023-11-21T00:10:56;56.30;;;32.60;;
72286;SDS011;60221;45.696;16.076;2023-11-21T00:13:23;56.80;;;30.40;;
72286;SDS011;60221;45.696;16.076;2023-11-21T00:15:50;57.50;;;31.80;;
72286;SDS011;60221;45.696;16.076;2023-11-21T00:18:17;59.50;;;32.40;;
72286;SDS011;60221;45.696;16.076;2023-11-21T00:20:44;61.80;;;36.10;;
72286;SDS011;60221;45.696;16.076;2023-11-21T00:23:11;64.60;;;34.10;;
72286;SDS011;60221;45.696;16.076;2023-11-21T00:25:37;67.50;;;36.70;;
72286;SDS011;60221;45.696;16.076;2023-11-21T00:28:04;63.30;;;35.50;;
72286;SDS011;60221;45.696;16.076;2023-11-21T00:30:32;58.00;;;32.80;;
72286;SDS011;60221;45.696;16.076;2023-11-21T00:32:59;63.30;;;35.10;;
72286;SDS011;60221;45.696;16.076;2023-11-21T00:35:26;62.10;;;34.30;;
72286;SDS011;60221;45.696;16.076;2023-11-21T00:37:53;61.10;;;35.00;;
72286;SDS011;60221;45.696;16.076;2023-11-21T00:40:20;58.40;;;33.50;;
72286;SDS011;60221;45.696;16.076;2023-11-21T00:42:48;60.90;;;33.30;;
72286;SDS011;60221;45.696;16.076;2023-11-21T00:45:14;57.10;;;32.30;;
72286;SDS011;60221;45.696;16.076;2023-11-21T00:47:41;61.60;;;33.40;;
72286;SDS011;60221;45.696;16.076;2023-11-21T00:50:09;57.60;;;32.70;;
72286;SDS011;60221;45.696;16.076;2023-11-21T00:52:36;51.70;;;29.50;;
72286;SDS011;60221;45.696;16.076;2023-11-21T00:55:04;46.60;;;27.20;;
72286;SDS011;60221;45.696;16.076;2023-11-21T00:57:31;54.50;;;28.90;;
72286;SDS011;60221;45.696;16.076;2023-11-21T00:59:58;54.40;;;28.10;;
72286;SDS011;60221;45.696;16.076;2023-11-21T01:02:24;48.20;;;25.80;;
72286;SDS011;60221;45.696;16.076;2023-11-21T01:04:52;44.50;;;24.90;;
72286;SDS011;60221;45.696;16.076;2023-11-21T01:07:19;46.80;;;25.90;;
72286;SDS011;60221;45.696;16.076;2023-11-21T01:09:49;47.30;;;24.30;;
72286;SDS011;60221;45.696;16.076;2023-11-21T01:12:16;40.40;;;22.60;;
72286;SDS011;60221;45.696;16.076;2023-11-21T01:14:44;42.40;;;22.40;;
72286;SDS011;60221;45.696;16.076;2023-11-21T01:17:11;40.50;;;21.90;;
72286;SDS011;60221;45.696;16.076;2023-11-21T01:19:38;38.10;;;19.60;;
72286;SDS011;60221;45.696;16.076;2023-11-21T01:22:05;40.00;;;22.20;;
72286;SDS011;60221;45.696;16.076;2023-11-21T01:24:32;36.40;;;19.20;;
72286;SDS011;60221;45.696;16.076;2023-11-21T01:26:59;37.10;;;20.30;;
72286;SDS011;60221;45.696;16.076;2023-11-21T01:29:25;43.50;;;23.70;;
72286;SDS011;60221;45.696;16.076;2023-11-21T01:31:52;44.20;;;23.80;;
72286;SDS011;60221;45.696;16.076;2023-11-21T01:34:19;56.20;;;34.20;;
72286;SDS011;60221;45.696;16.076;2023-11-21T01:36:46;56.00;;;33.80;;
72286;SDS011;60221;45.696;16.076;2023-11-21T01:39:13;70.60;;;40.20;;
72286;SDS011;60221;45.696;16.076;2023-11-21T01:41:42;67.50;;;36.80;;
72286;SDS011;60221;45.696;16.076;2023-11-21T01:44:10;81.10;;;45.90;;
72286;SDS011;60221;45.696;16.076;2023-11-21T01:46:37;75.70;;;42.10;;
72286;SDS011;60221;45.696;16.076;2023-11-21T01:49:05;65.50;;;38.60;;
72286;SDS011;60221;45.696;16.076;2023-11-21T01:51:32;51.40;;;29.50;;
72286;SDS011;60221;45.696;16.076;2023-11-21T01:54:00;54.40;;;32.00;;
72286;SDS011;60221;45.696;16.076;2023-11-21T01:56:28;55.00;;;31.90;;
72286;SDS011;60221;45.696;16.076;2023-11-21T01:58:54;47.10;;;27.40;;
72286;SDS011;60221;45.696;16.076;2023-11-21T02:01:22;48.20;;;27.50;;
72286;SDS011;60221;45.696;16.076;2023-11-21T02:03:48;47.20;;;27.10;;
72286;SDS011;60221;45.696;16.076;2023-11-21T02:06:15;48.10;;;26.20;;
72286;SDS011;60221;45.696;16.076;2023-11-21T02:08:42;47.50;;;27.20;;
72286;SDS011;60221;45.696;16.076;2023-11-21T02:11:11;47.80;;;27.40;;
72286;SDS011;60221;45.696;16.076;2023-11-21T02:13:40;50.20;;;28.40;;
72286;SDS011;60221;45.696;16.076;2023-11-21T02:16:12;52.50;;;28.20;;
72286;SDS011;60221;45.696;16.076;2023-11-21T02:18:39;43.70;;;26.40;;
72286;SDS011;60221;45.696;16.076;2023-11-21T02:21:06;46.00;;;25.90;;
72286;SDS011;60221;45.696;16.076;2023-11-21T02:23:33;47.80;;;29.00;;
72286;SDS011;60221;45.696;16.076;2023-11-21T02:26:00;48.10;;;26.30;;
72286;SDS011;60221;45.696;16.076;2023-11-21T02:28:31;45.80;;;25.30;;
72286;SDS011;60221;45.696;16.076;2023-11-21T02:30:57;43.90;;;24.20;;
72286;SDS011;60221;45.696;16.076;2023-11-21T02:33:25;44.80;;;25.10;;
72286;SDS011;60221;45.696;16.076;2023-11-21T02:35:52;40.00;;;24.50;;
72286;SDS011;60221;45.696;16.076;2023-11-21T02:38:21;47.00;;;24.40;;
72286;SDS011;60221;45.696;16.076;2023-11-21T02:40:48;43.10;;;24.00;;
72286;SDS011;60221;45.696;16.076;2023-11-21T02:43:16;42.10;;;23.70;;
72286;SDS011;60221;45.696;16.076;2023-11-21T02:45:42;40.80;;;22.60;;
72286;SDS011;60221;45.696;16.076;2023-11-21T02:48:09;43.10;;;24.50;;
72286;SDS011;60221;45.696;16.076;2023-11-21T02:50:36;39.50;;;22.70;;
72286;SDS011;60221;45.696;16.076;2023-11-21T02:53:04;43.40;;;23.80;;
72286;SDS011;60221;45.696;16.076;2023-11-21T02:55:32;39.60;;;22.90;;
72286;SDS011;60221;45.696;16.076;2023-11-21T02:58:02;39.90;;;23.20;;
72286;SDS011;60221;45.696;16.076;2023-11-21T03:00:30;41.40;;;23.70;;
72286;SDS011;60221;45.696;16.076;2023-11-21T03:02:57;39.50;;;21.50;;
72286;SDS011;60221;45.696;16.076;2023-11-21T03:05:25;36.10;;;21.80;;
72286;SDS011;60221;45.696;16.076;2023-11-21T03:07:52;37.30;;;21.60;;
72286;SDS011;60221;45.696;16.076;2023-11-21T03:10:18;44.00;;;25.60;;
72286;SDS011;60221;45.696;16.076;2023-11-21T03:12:46;32.50;;;17.20;;
72286;SDS011;60221;45.696;16.076;2023-11-21T03:15:12;40.80;;;23.90;;
72286;SDS011;60221;45.696;16.076;2023-11-21T03:17:39;41.30;;;24.10;;
72286;SDS011;60221;45.696;16.076;2023-11-21T03:20:06;32.50;;;20.60;;
72286;SDS011;60221;45.696;16.076;2023-11-21T03:22:38;35.80;;;19.80;;
72286;SDS011;60221;45.696;16.076;2023-11-21T03:25:05;41.10;;;24.30;;
72286;SDS011;60221;45.696;16.076;2023-11-21T03:27:32;34.80;;;19.90;;
72286;SDS011;60221;45.696;16.076;2023-11-21T03:29:59;27.30;;;17.80;;
72286;SDS011;60221;45.696;16.076;2023-11-21T03:32:26;26.60;;;16.50;;
72286;SDS011;60221;45.696;16.076;2023-11-21T03:34:56;29.40;;;17.90;;
72286;SDS011;60221;45.696;16.076;2023-11-21T03:37:25;26.70;;;15.70;;
72286;SDS011;60221;45.696;16.076;2023-11-21T03:39:55;25.60;;;16.90;;
72286;SDS011;60221;45.696;16.076;2023-11-21T03:42:23;27.00;;;14.90;;
72286;SDS011;60221;45.696;16.076;2023-11-21T03:44:50;22.50;;;13.40;;
72286;SDS011;60221;45.696;16.076;2023-11-21T03:47:17;21.90;;;12.80;;
72286;SDS011;60221;45.696;16.076;2023-11-21T03:49:45;25.20;;;15.20;;
72286;SDS011;60221;45.696;16.076;2023-11-21T03:52:14;23.70;;;14.30;;
72286;SDS011;60221;45.696;16.076;2023-11-21T03:54:41;21.10;;;13.30;;
72286;SDS011;60221;45.696;16.076;2023-11-21T03:57:09;24.40;;;13.20;;
72286;SDS011;60221;45.696;16.076;2023-11-21T03:59:36;20.90;;;12.40;;
72286;SDS011;60221;45.696;16.076;2023-11-21T04:02:02;23.00;;;12.70;;
72286;SDS011;60221;45.696;16.076;2023-11-21T04:04:29;21.20;;;12.30;;
72286;SDS011;60221;45.696;16.076;2023-11-21T04:06:56;21.30;;;12.80;;
72286;SDS011;60221;45.696;16.076;2023-11-21T04:09:23;20.80;;;11.80;;
72286;SDS011;60221;45.696;16.076;2023-11-21T04:11:52;21.60;;;12.50;;
72286;SDS011;60221;45.696;16.076;2023-11-21T04:14:19;20.90;;;11.50;;
72286;SDS011;60221;45.696;16.076;2023-11-21T04:16:45;21.40;;;11.80;;
72286;SDS011;60221;45.696;16.076;2023-11-21T04:19:12;20.30;;;12.30;;
72286;SDS011;60221;45.696;16.076;2023-11-21T04:21:43;21.30;;;12.30;;
72286;SDS011;60221;45.696;16.076;2023-11-21T04:24:10;21.10;;;12.00;;
72286;SDS011;60221;45.696;16.076;2023-11-21T04:26:37;20.60;;;11.10;;
72286;SDS011;60221;45.696;16.076;2023-11-21T04:29:04;20.70;;;12.70;;
72286;SDS011;60221;45.696;16.076;2023-11-21T04:31:31;22.70;;;12.80;;
72286;SDS011;60221;45.696;16.076;2023-11-21T04:33:58;22.40;;;12.10;;
72286;SDS011;60221;45.696;16.076;2023-11-21T04:36:25;21.50;;;12.50;;
72286;SDS011;60221;45.696;16.076;2023-11-21T04:38:52;18.60;;;11.80;;
72286;SDS011;60221;45.696;16.076;2023-11-21T04:41:19;23.60;;;13.40;;
72286;SDS011;60221;45.696;16.076;2023-11-21T04:43:46;21.30;;;11.90;;
72286;SDS011;60221;45.696;16.076;2023-11-21T04:46:13;21.60;;;13.20;;
72286;SDS011;60221;45.696;16.076;2023-11-21T04:48:39;21.30;;;12.40;;
72286;SDS011;60221;45.696;16.076;2023-11-21T04:51:06;24.80;;;13.20;;
72286;SDS011;60221;45.696;16.076;2023-11-21T04:53:33;22.90;;;12.60;;
72286;SDS011;60221;45.696;16.076;2023-11-21T04:56:01;21.60;;;13.20;;
72286;SDS011;60221;45.696;16.076;2023-11-21T04:58:28;22.90;;;12.60;;
72286;SDS011;60221;45.696;16.076;2023-11-21T05:00:55;23.80;;;14.10;;
72286;SDS011;60221;45.696;16.076;2023-11-21T05:03:21;25.10;;;13.90;;
72286;SDS011;60221;45.696;16.076;2023-11-21T05:05:50;23.00;;;13.70;;
72286;SDS011;60221;45.696;16.076;2023-11-21T05:08:17;21.70;;;13.70;;
72286;SDS011;60221;45.696;16.076;2023-11-21T05:10:45;23.40;;;13.60;;
72286;SDS011;60221;45.696;16.076;2023-11-21T05:13:12;26.80;;;14.30;;
72286;SDS011;60221;45.696;16.076;2023-11-21T05:15:39;27.90;;;14.50;;
72286;SDS011;60221;45.696;16.076;2023-11-21T05:18:06;23.00;;;14.20;;
72286;SDS011;60221;45.696;16.076;2023-11-21T05:20:33;23.90;;;14.00;;
72286;SDS011;60221;45.696;16.076;2023-11-21T05:23:00;21.60;;;12.90;;
72286;SDS011;60221;45.696;16.076;2023-11-21T05:25:26;26.40;;;13.80;;
72286;SDS011;60221;45.696;16.076;2023-11-21T05:27:53;22.50;;;13.30;;
72286;SDS011;60221;45.696;16.076;2023-11-21T05:30:25;20.10;;;12.10;;
72286;SDS011;60221;45.696;16.076;2023-11-21T05:32:52;19.10;;;12.00;;
72286;SDS011;60221;45.696;16.076;2023-11-21T05:35:20;24.70;;;15.30;;
72286;SDS011;60221;45.696;16.076;2023-11-21T05:37:47;21.80;;;12.50;;
72286;SDS011;60221;45.696;16.076;2023-11-21T05:40:14;21.00;;;12.40;;
72286;SDS011;60221;45.696;16.076;2023-11-21T05:42:41;21.60;;;13.10;;
72286;SDS011;60221;45.696;16.076;2023-11-21T05:45:08;21.20;;;12.80;;
72286;SDS011;60221;45.696;16.076;2023-11-21T05:47:40;24.60;;;14.00;;
72286;SDS011;60221;45.696;16.076;2023-11-21T05:50:08;21.80;;;12.30;;
72286;SDS011;60221;45.696;16.076;2023-11-21T05:52:39;23.00;;;13.10;;
72286;SDS011;60221;45.696;16.076;2023-11-21T05:55:08;24.00;;;13.40;;
72286;SDS011;60221;45.696;16.076;2023-11-21T05:57:36;23.70;;;13.80;;
72286;SDS011;60221;45.696;16.076;2023-11-21T06:00:05;25.90;;;13.60;;
72286;SDS011;60221;45.696;16.076;2023-11-21T06:02:40;23.60;;;14.20;;
72286;SDS011;60221;45.696;16.076;2023-11-21T06:05:08;26.90;;;13.90;;
72286;SDS011;60221;45.696;16.076;2023-11-21T06:07:35;23.70;;;13.50;;
72286;SDS011;60221;45.696;16.076;2023-11-21T06:10:05;26.30;;;14.20;;
72286;SDS011;60221;45.696;16.076;2023-11-21T06:12:34;25.50;;;14.20;;
72286;SDS011;60221;45.696;16.076;2023-11-21T06:15:02;30.70;;;18.30;;
72286;SDS011;60221;45.696;16.076;2023-11-21T06:17:35;23.40;;;13.40;;
72286;SDS011;60221;45.696;16.076;2023-11-21T06:20:06;28.90;;;17.50;;
72286;SDS011;60221;45.696;16.076;2023-11-21T06:22:40;26.10;;;15.00;;
72286;SDS011;60221;45.696;16.076;2023-11-21T06:25:08;28.40;;;17.00;;
72286;SDS011;60221;45.696;16.076;2023-11-21T06:27:39;27.10;;;16.10;;
72286;SDS011;60221;45.696;16.076;2023-11-21T06:30:06;23.00;;;13.70;;
72286;SDS011;60221;45.696;16.076;2023-11-21T06:32:35;32.40;;;17.70;;
72286;SDS011;60221;45.696;16.076;2023-11-21T06:35:02;25.70;;;15.20;;
72286;SDS011;60221;45.696;16.076;2023-11-21T06:37:30;26.90;;;16.10;;
72286;SDS011;60221;45.696;16.076;2023-11-21T06:39:58;31.40;;;17.50;;
72286;SDS011;60221;45.696;16.076;2023-11-21T06:42:26;23.60;;;13.80;;
72286;SDS011;60221;45.696;16.076;2023-11-21T06:44:53;25.50;;;15.20;;
72286;SDS011;60221;45.696;16.076;2023-11-21T06:47:23;25.80;;;13.50;;
72286;SDS011;60221;45.696;16.076;2023-11-21T06:49:56;19.60;;;10.90;;
72286;SDS011;60221;45.696;16.076;2023-11-21T06:52:23;24.10;;;12.90;;
72286;SDS011;60221;45.696;16.076;2023-11-21T06:54:50;22.30;;;12.40;;
72286;SDS011;60221;45.696;16.076;2023-11-21T06:57:17;21.80;;;11.90;;
72286;SDS011;60221;45.696;16.076;2023-11-21T06:59:44;20.20;;;11.30;;
72286;SDS011;60221;45.696;16.076;2023-11-21T07:02:11;20.60;;;12.90;;
72286;SDS011;60221;45.696;16.076;2023-11-21T07:04:38;21.90;;;12.40;;
72286;SDS011;60221;45.696;16.076;2023-11-21T07:07:06;23.60;;;13.50;;
72286;SDS011;60221;45.696;16.076;2023-11-21T07:09:33;21.10;;;12.90;;
72286;SDS011;60221;45.696;16.076;2023-11-21T07:12:00;21.30;;;12.50;;
72286;SDS011;60221;45.696;16.076;2023-11-21T07:14:28;18.70;;;11.00;;
72286;SDS011;60221;45.696;16.076;2023-11-21T07:16:54;22.50;;;12.20;;
72286;SDS011;60221;45.696;16.076;2023-11-21T07:19:21;19.50;;;10.20;;
72286;SDS011;60221;45.696;16.076;2023-11-21T07:21:48;18.10;;;10.00;;
72286;SDS011;60221;45.696;16.076;2023-11-21T07:24:17;17.10;;;9.90;;
72286;SDS011;60221;45.696;16.076;2023-11-21T07:26:44;17.40;;;10.30;;
72286;SDS011;60221;45.696;16.076;2023-11-21T07:29:11;18.10;;;10.30;;
72286;SDS011;60221;45.696;16.076;2023-11-21T07:31:38;18.80;;;10.60;;
72286;SDS011;60221;45.696;16.076;2023-11-21T07:34:05;18.40;;;9.50;;
72286;SDS011;60221;45.696;16.076;2023-11-21T07:36:32;16.50;;;9.30;;
72286;SDS011;60221;45.696;16.076;2023-11-21T07:38:59;17.20;;;9.50;;
72286;SDS011;60221;45.696;16.076;2023-11-21T07:41:25;14.90;;;8.20;;
72286;SDS011;60221;45.696;16.076;2023-11-21T07:43:57;13.20;;;6.50;;
72286;SDS011;60221;45.696;16.076;2023-11-21T07:46:25;13.30;;;7.10;;
72286;SDS011;60221;45.696;16.076;2023-11-21T07:48:53;13.00;;;7.30;;
72286;SDS011;60221;45.696;16.076;2023-11-21T07:51:20;12.70;;;6.20;;
72286;SDS011;60221;45.696;16.076;2023-11-21T07:53:46;9.60;;;5.00;;
72286;SDS011;60221;45.696;16.076;2023-11-21T07:56:13;10.10;;;4.60;;
72286;SDS011;60221;45.696;16.076;2023-11-21T07:58:40;11.40;;;5.10;;
72286;SDS011;60221;45.696;16.076;2023-11-21T08:01:07;9.10;;;4.10;;
72286;SDS011;60221;45.696;16.076;2023-11-21T08:03:34;6.80;;;2.80;;
72286;SDS011;60221;45.696;16.076;2023-11-21T08:06:01;6.20;;;2.50;;
72286;SDS011;60221;45.696;16.076;2023-11-21T08:08:30;6.70;;;2.30;;
72286;SDS011;60221;45.696;16.076;2023-11-21T08:10:57;6.30;;;1.80;;
72286;SDS011;60221;45.696;16.076;2023-11-21T08:13:27;4.30;;;1.10;;
72286;SDS011;60221;45.696;16.076;2023-11-21T08:15:55;4.30;;;1.00;;
72286;SDS011;60221;45.696;16.076;2023-11-21T08:18:29;4.40;;;0.70;;
72286;SDS011;60221;45.696;16.076;2023-11-21T08:20:56;3.10;;;0.60;;
72286;SDS011;60221;45.696;16.076;2023-11-21T08:23:24;4.70;;;0.50;;
72286;SDS011;60221;45.696;16.076;2023-11-21T08:25:58;3.70;;;0.50;;
72286;SDS011;60221;45.696;16.076;2023-11-21T08:28:25;2.70;;;0.40;;
72286;SDS011;60221;45.696;16.076;2023-11-21T08:30:54;3.10;;;0.40;;
72286;SDS011;60221;45.696;16.076;2023-11-21T08:33:21;2.50;;;0.30;;
72286;SDS011;60221;45.696;16.076;2023-11-21T08:35:48;3.00;;;0.30;;
72286;SDS011;60221;45.696;16.076;2023-11-21T08:38:15;4.40;;;0.30;;
72286;SDS011;60221;45.696;16.076;2023-11-21T08:40:42;3.60;;;0.30;;
72286;SDS011;60221;45.696;16.076;2023-11-21T08:43:08;1.80;;;0.20;;
72286;SDS011;60221;45.696;16.076;2023-11-21T08:45:35;4.20;;;0.50;;
72286;SDS011;60221;45.696;16.076;2023-11-21T08:48:02;2.20;;;0.20;;
72286;SDS011;60221;45.696;16.076;2023-11-21T08:50:29;3.00;;;0.20;;
72286;SDS011;60221;45.696;16.076;2023-11-21T08:52:56;3.00;;;0.30;;
72286;SDS011;60221;45.696;16.076;2023-11-21T08:55:23;2.90;;;0.30;;
72286;SDS011;60221;45.696;16.076;2023-11-21T08:57:50;3.50;;;0.30;;
72286;SDS011;60221;45.696;16.076;2023-11-21T09:00:17;2.30;;;0.20;;
72286;SDS011;60221;45.696;16.076;2023-11-21T09:02:44;3.00;;;0.20;;
72286;SDS011;60221;45.696;16.076;2023-11-21T09:05:12;3.10;;;0.30;;
72286;SDS011;60221;45.696;16.076;2023-11-21T09:07:40;3.70;;;0.20;;
72286;SDS011;60221;45.696;16.076;2023-11-21T09:10:08;3.50;;;0.20;;
72286;SDS011;60221;45.696;16.076;2023-11-21T09:12:36;3.80;;;0.20;;
72286;SDS011;60221;45.696;16.076;2023-11-21T09:15:06;2.40;;;0.20;;
72286;SDS011;60221;45.696;16.076;2023-11-21T09:17:34;3.40;;;0.30;;
72286;SDS011;60221;45.696;16.076;2023-11-21T09:20:01;2.00;;;0.20;;
72286;SDS011;60221;45.696;16.076;2023-11-21T09:22:30;4.00;;;0.20;;
72286;SDS011;60221;45.696;16.076;2023-11-21T09:24:58;3.50;;;0.30;;
72286;SDS011;60221;45.696;16.076;2023-11-21T09:27:25;5.10;;;0.20;;
72286;SDS011;60221;45.696;16.076;2023-11-21T09:29:52;3.50;;;0.70;;
72286;SDS011;60221;45.696;16.076;2023-11-21T09:32:20;4.20;;;0.30;;
72286;SDS011;60221;45.696;16.076;2023-11-21T09:34:50;3.10;;;0.20;;
72286;SDS011;60221;45.696;16.076;2023-11-21T09:37:17;3.60;;;0.40;;
72286;SDS011;60221;45.696;16.076;2023-11-21T09:39:44;4.20;;;0.30;;
72286;SDS011;60221;45.696;16.076;2023-11-21T09:42:12;3.10;;;0.30;;
72286;SDS011;60221;45.696;16.076;2023-11-21T09:44:46;3.00;;;0.20;;
72286;SDS011;60221;45.696;16.076;2023-11-21T09:47:15;5.00;;;0.30;;
72286;SDS011;60221;45.696;16.076;2023-11-21T09:49:47;3.70;;;0.40;;
72286;SDS011;60221;45.696;16.076;2023-11-21T09:52:16;2.30;;;0.30;;
72286;SDS011;60221;45.696;16.076;2023-11-21T09:54:44;4.40;;;0.30;;
72286;SDS011;60221;45.696;16.076;2023-11-21T09:57:11;4.40;;;0.40;;
72286;SDS011;60221;45.696;16.076;2023-11-21T09:59:38;5.00;;;0.20;;
72286;SDS011;60221;45.696;16.076;2023-11-21T10:02:05;2.50;;;0.20;;
72286;SDS011;60221;45.696;16.076;2023-11-21T10:04:33;2.40;;;0.20;;
72286;SDS011;60221;45.696;16.076;2023-11-21T10:07:01;3.70;;;0.20;;
72286;SDS011;60221;45.696;16.076;2023-11-21T10:09:29;2.60;;;0.20;;
72286;SDS011;60221;45.696;16.076;2023-11-21T10:11:55;3.50;;;0.30;;
72286;SDS011;60221;45.696;16.076;2023-11-21T10:14:23;3.70;;;0.30;;
72286;SDS011;60221;45.696;16.076;2023-11-21T10:16:51;3.30;;;0.30;;
72286;SDS011;60221;45.696;16.076;2023-11-21T10:19:19;4.10;;;0.40;;
72286;SDS011;60221;45.696;16.076;2023-11-21T10:21:47;3.50;;;0.30;;
72286;SDS011;60221;45.696;16.076;2023-11-21T10:24:14;5.50;;;0.50;;
72286;SDS011;60221;45.696;16.076;2023-11-21T10:26:42;2.60;;;0.20;;
72286;SDS011;60221;45.696;16.076;2023-11-21T10:29:18;3.30;;;0.20;;
72286;SDS011;60221;45.696;16.076;2023-11-21T10:31:45;3.20;;;0.30;;
72286;SDS011;60221;45.696;16.076;2023-11-21T10:34:16;4.00;;;0.20;;
72286;SDS011;60221;45.696;16.076;2023-11-21T10:36:43;5.20;;;0.30;;
72286;SDS011;60221;45.696;16.076;2023-11-21T10:39:09;3.70;;;0.50;;
72286;SDS011;60221;45.696;16.076;2023-11-21T10:41:39;2.90;;;0.20;;
72286;SDS011;60221;45.696;16.076;2023-11-21T10:44:06;4.10;;;0.50;;
72286;SDS011;60221;45.696;16.076;2023-11-21T10:46:36;4.00;;;0.30;;
72286;SDS011;60221;45.696;16.076;2023-11-21T10:49:02;4.20;;;0.30;;
72286;SDS011;60221;45.696;16.076;2023-11-21T10:51:30;4.30;;;0.70;;
72286;SDS011;60221;45.696;16.076;2023-11-21T10:53:57;3.10;;;0.50;;
72286;SDS011;60221;45.696;16.076;2023-11-21T10:56:26;3.90;;;0.30;;
72286;SDS011;60221;45.696;16.076;2023-11-21T10:58:53;4.50;;;0.50;;
72286;SDS011;60221;45.696;16.076;2023-11-21T11:01:20;4.60;;;0.70;;
72286;SDS011;60221;45.696;16.076;2023-11-21T11:03:49;5.10;;;1.20;;
72286;SDS011;60221;45.696;16.076;2023-11-21T11:06:16;4.40;;;0.60;;
72286;SDS011;60221;45.696;16.076;2023-11-21T11:08:43;5.10;;;0.60;;
72286;SDS011;60221;45.696;16.076;2023-11-21T11:11:10;4.10;;;0.60;;
72286;SDS011;60221;45.696;16.076;2023-11-21T11:13:37;4.90;;;1.40;;
72286;SDS011;60221;45.696;16.076;2023-11-21T11:16:04;5.00;;;0.70;;
72286;SDS011;60221;45.696;16.076;2023-11-21T11:18:34;4.60;;;0.40;;
72286;SDS011;60221;45.696;16.076;2023-11-21T11:24:05;4.00;;;0.40;;
72286;SDS011;60221;45.696;16.076;2023-11-21T11:26:44;6.60;;;1.20;;
72286;SDS011;60221;45.696;16.076;2023-11-21T11:34:39;3.20;;;0.30;;
72286;SDS011;60221;45.696;16.076;2023-11-21T11:37:08;2.90;;;0.20;;
72286;SDS011;60221;45.696;16.076;2023-11-21T11:39:36;2.80;;;0.20;;
72286;SDS011;60221;45.696;16.076;2023-11-21T11:42:07;5.60;;;0.30;;
72286;SDS011;60221;45.696;16.076;2023-11-21T11:44:55;3.20;;;0.20;;
72286;SDS011;60221;45.696;16.076;2023-11-21T11:47:24;3.50;;;0.30;;
72286;SDS011;60221;45.696;16.076;2023-11-21T11:50:04;3.50;;;0.30;;
72286;SDS011;60221;45.696;16.076;2023-11-21T11:55:02;5.00;;;1.10;;
72286;SDS011;60221;45.696;16.076;2023-11-21T11:57:29;13.90;;;4.90;;
72286;SDS011;60221;45.696;16.076;2023-11-21T12:02:56;13.40;;;5.00;;
72286;SDS011;60221;45.696;16.076;2023-11-21T12:05:26;17.90;;;7.70;;
72286;SDS011;60221;45.696;16.076;2023-11-21T12:08:00;18.10;;;7.90;;
72286;SDS011;60221;45.696;16.076;2023-11-21T12:10:28;11.70;;;5.00;;
72286;SDS011;60221;45.696;16.076;2023-11-21T12:12:55;10.40;;;3.90;;
72286;SDS011;60221;45.696;16.076;2023-11-21T12:15:23;11.00;;;3.70;;
72286;SDS011;60221;45.696;16.076;2023-11-21T12:17:51;9.50;;;3.40;;
72286;SDS011;60221;45.696;16.076;2023-11-21T12:20:19;9.10;;;2.50;;
72286;SDS011;60221;45.696;16.076;2023-11-21T12:22:50;10.30;;;3.40;;
72286;SDS011;60221;45.696;16.076;2023-11-21T12:25:19;8.60;;;3.60;;
72286;SDS011;60221;45.696;16.076;2023-11-21T12:27:46;8.50;;;2.20;;
72286;SDS011;60221;45.696;16.076;2023-11-21T12:30:13;5.90;;;1.80;;
72286;SDS011;60221;45.696;16.076;2023-11-21T12:32:47;7.00;;;1.80;;
72286;SDS011;60221;45.696;16.076;2023-11-21T12:35:14;8.10;;;1.90;;
72286;SDS011;60221;45.696;16.076;2023-11-21T12:37:42;8.20;;;2.00;;
72286;SDS011;60221;45.696;16.076;2023-11-21T12:40:09;7.60;;;2.30;;
72286;SDS011;60221;45.696;16.076;2023-11-21T12:42:39;7.90;;;2.30;;
72286;SDS011;60221;45.696;16.076;2023-11-21T12:45:25;9.80;;;3.20;;
72286;SDS011;60221;45.696;16.076;2023-11-21T12:48:02;6.90;;;2.50;;
72286;SDS011;60221;45.696;16.076;2023-11-21T12:50:34;5.10;;;1.50;;
72286;SDS011;60221;45.696;16.076;2023-11-21T12:53:11;9.80;;;2.90;;
72286;SDS011;60221;45.696;16.076;2023-11-21T12:55:39;8.50;;;2.70;;
72286;SDS011;60221;45.696;16.076;2023-11-21T12:58:07;9.20;;;3.20;;
72286;SDS011;60221;45.696;16.076;2023-11-21T13:00:39;10.70;;;4.00;;
72286;SDS011;60221;45.696;16.076;2023-11-21T13:03:09;12.50;;;4.50;;
72286;SDS011;60221;45.696;16.076;2023-11-21T13:05:39;11.20;;;3.60;;
72286;SDS011;60221;45.696;16.076;2023-11-21T13:08:09;14.10;;;4.50;;
72286;SDS011;60221;45.696;16.076;2023-11-21T13:10:39;11.20;;;3.50;;
72286;SDS011;60221;45.696;16.076;2023-11-21T13:13:06;10.00;;;3.70;;
72286;SDS011;60221;45.696;16.076;2023-11-21T13:15:39;9.90;;;2.90;;
72286;SDS011;60221;45.696;16.076;2023-11-21T13:18:07;9.10;;;2.90;;
72286;SDS011;60221;45.696;16.076;2023-11-21T13:20:34;11.20;;;3.60;;
72286;SDS011;60221;45.696;16.076;2023-11-21T13:23:06;9.80;;;2.50;;
72286;SDS011;60221;45.696;16.076;2023-11-21T13:25:34;8.40;;;2.50;;
72286;SDS011;60221;45.696;16.076;2023-11-21T13:28:01;10.30;;;2.30;;
72286;SDS011;60221;45.696;16.076;2023-11-21T13:30:28;6.90;;;2.00;;
72286;SDS011;60221;45.696;16.076;2023-11-21T13:33:03;8.50;;;1.90;;
72286;SDS011;60221;45.696;16.076;2023-11-21T13:35:37;7.40;;;1.60;;
72286;SDS011;60221;45.696;16.076;2023-11-21T13:38:14;6.90;;;1.40;;
72286;SDS011;60221;45.696;16.076;2023-11-21T13:40:50;8.80;;;3.00;;
72286;SDS011;60221;45.696;16.076;2023-11-21T13:43:20;7.00;;;1.80;;
72286;SDS011;60221;45.696;16.076;2023-11-21T13:45:48;8.30;;;3.10;;
72286;SDS011;60221;45.696;16.076;2023-11-21T13:48:26;7.70;;;2.70;;
72286;SDS011;60221;45.696;16.076;2023-11-21T13:51:00;7.90;;;1.90;;
72286;SDS011;60221;45.696;16.076;2023-11-21T13:53:37;8.70;;;2.50;;
72286;SDS011;60221;45.696;16.076;2023-11-21T13:56:05;6.10;;;2.20;;
72286;SDS011;60221;45.696;16.076;2023-11-21T13:58:32;6.90;;;2.30;;
72286;SDS011;60221;45.696;16.076;2023-11-21T14:01:13;11.80;;;3.60;;
72286;SDS011;60221;45.696;16.076;2023-11-21T14:04:02;9.30;;;3.40;;
72286;SDS011;60221;45.696;16.076;2023-11-21T14:06:38;11.40;;;4.30;;
72286;SDS011;60221;45.696;16.076;2023-11-21T14:09:18;23.40;;;8.30;;
72286;SDS011;60221;45.696;16.076;2023-11-21T14:11:54;28.10;;;8.20;;
72286;SDS011;60221;45.696;16.076;2023-11-21T14:14:23;31.40;;;10.70;;
72286;SDS011;60221;45.696;16.076;2023-11-21T14:16:51;27.90;;;10.50;;
72286;SDS011;60221;45.696;16.076;2023-11-21T14:19:18;29.10;;;10.50;;
72286;SDS011;60221;45.696;16.076;2023-11-21T14:21:46;23.00;;;9.00;;
72286;SDS011;60221;45.696;16.076;2023-11-21T14:24:14;20.60;;;8.70;;
72286;SDS011;60221;45.696;16.076;2023-11-21T14:26:42;23.80;;;9.00;;
72286;SDS011;60221;45.696;16.076;2023-11-21T14:29:09;20.10;;;8.20;;
72286;SDS011;60221;45.696;16.076;2023-11-21T14:31:38;18.60;;;8.80;;
72286;SDS011;60221;45.696;16.076;2023-11-21T14:34:06;16.70;;;8.40;;
72286;SDS011;60221;45.696;16.076;2023-11-21T14:36:33;20.60;;;8.60;;
72286;SDS011;60221;45.696;16.076;2023-11-21T14:39:00;17.20;;;8.50;;